Time;durP1;ratioP1;P1;durP2;ratioP2;P2;SDS_P1;SDS_P2;PMS_P1;PMS_P2;Temp;Humidity;BMP_temperature;BMP_pressure;BME280_temperature;BME280_humidity;BME280_pressure;Samples;Min_cycle;Max_cycle;Signal;HPM_P1;HPM_P2
2021/03/24 00:01:59;;;;;;;15.93;6.78;;;;;;;-1.13;78.49;99260.97;1733629;83;21312;-76
2021/03/24 00:05:06;;;;;;;11.85;6.92;;;;;;;-1.10;78.80;99263.88;1733713;83;21268;-75
2021/03/24 00:08:12;;;;;;;17.12;7.17;;;;;;;-1.08;79.07;99268.15;1733614;83;21174;-76
2021/03/24 00:11:18;;;;;;;12.65;7.22;;;;;;;-1.04;79.33;99266.03;1733679;83;21709;-76
2021/03/24 00:14:26;;;;;;;15.28;6.12;;;;;;;-0.98;79.60;99262.02;1733475;83;21189;-75
2021/03/24 00:17:31;;;;;;;15.08;6.03;;;;;;;-0.97;79.70;99267.24;1733581;83;21755;-75
2021/03/24 00:20:39;;;;;;;12.90;6.08;;;;;;;-0.94;79.98;99256.72;1733592;83;21697;-75
2021/03/24 00:23:46;;;;;;;9.43;4.87;;;;;;;-0.92;80.39;99256.97;1733660;83;21154;-75
2021/03/24 00:26:52;;;;;;;11.65;5.22;;;;;;;-0.89;80.72;99258.06;1733642;83;21340;-76
2021/03/24 00:29:56;;;;;;;11.80;5.60;;;;;;;-0.86;80.97;99255.09;1733706;83;21828;-75
2021/03/24 00:33:01;;;;;;;9.05;5.15;;;;;;;-0.81;81.11;99260.93;1733552;83;21744;-76
2021/03/24 00:36:06;;;;;;;10.03;5.42;;;;;;;-0.75;81.24;99262.27;1733670;83;21165;-75
2021/03/24 00:39:16;;;;;;;11.95;5.20;;;;;;;-0.70;81.38;99260.54;1733607;83;21198;-76
2021/03/24 00:42:17;;;;;;;11.95;5.90;;;;;;;-0.70;81.45;99257.36;1733571;83;21197;-75
2021/03/24 00:45:22;;;;;;;16.12;7.28;;;;;;;-0.66;81.65;99256.58;1733604;83;21343;-75
2021/03/24 00:48:35;;;;;;;13.18;7.17;;;;;;;-0.62;81.84;99256.69;1732793;82;21891;-75
2021/03/24 00:51:41;;;;;;;16.77;7.45;;;;;;;-0.59;81.85;99257.78;1733590;83;21150;-75
2021/03/24 00:54:47;;;;;;;21.50;8.48;;;;;;;-0.61;81.95;99261.95;1733616;83;21178;-75
2021/03/24 00:57:52;;;;;;;19.62;11.75;;;;;;;-0.60;82.14;99249.37;1733543;83;21709;-76
2021/03/24 01:00:58;;;;;;;23.70;12.43;;;;;;;-0.58;82.35;99262.16;1733439;83;21769;-76
2021/03/24 01:04:03;;;;;;;30.80;14.45;;;;;;;-0.56;82.54;99262.90;1733642;83;21209;-76
2021/03/24 01:07:08;;;;;;;35.30;17.07;;;;;;;-0.56;82.70;99258.38;1733649;83;21308;-76
2021/03/24 01:10:16;;;;;;;38.08;19.65;;;;;;;-0.53;82.83;99259.93;1733612;83;21189;-76
2021/03/24 01:13:23;;;;;;;51.75;25.82;;;;;;;-0.50;82.88;99257.48;1760470;80;21156;-76
2021/03/24 01:16:29;;;;;;;48.78;24.40;;;;;;;-0.50;82.93;99255.65;1773438;81;21200;-76
2021/03/24 01:19:35;;;;;;;51.65;25.62;;;;;;;-0.48;83.07;99257.70;1787410;80;21256;-75
2021/03/24 01:22:41;;;;;;;69.32;31.17;;;;;;;-0.45;83.15;99256.59;1773744;81;21165;-75
2021/03/24 01:25:46;;;;;;;71.07;33.42;;;;;;;-0.41;83.21;99256.20;1787397;80;21276;-76
2021/03/24 01:28:59;;;;;;;85.83;36.53;;;;;;;-0.39;83.16;99258.25;1725864;81;21888;-75
2021/03/24 01:32:04;;;;;;;100.25;49.95;;;;;;;-0.36;83.16;99257.15;1709187;84;21269;-75
2021/03/24 01:35:16;;;;;;;99.67;49.03;;;;;;;-0.35;83.25;99256.16;1709194;84;21265;-75
2021/03/24 01:38:22;;;;;;;115.88;56.73;;;;;;;-0.35;83.33;99257.50;1709204;84;21268;-75
2021/03/24 01:41:29;;;;;;;106.47;52.43;;;;;;;-0.36;83.56;99262.52;1709197;84;21320;-76
2021/03/24 01:44:34;;;;;;;115.03;56.15;;;;;;;-0.33;83.71;99267.14;1730516;83;21316;-75
2021/03/24 01:47:40;;;;;;;107.85;50.67;;;;;;;-0.33;83.89;99260.43;1707030;84;21205;-76
2021/03/24 01:50:45;;;;;;;97.00;47.80;;;;;;;-0.32;83.99;99262.62;1732013;83;21265;-75
2021/03/24 01:53:52;;;;;;;106.50;53.13;;;;;;;-0.27;84.14;99266.61;1732042;83;21157;-75
2021/03/24 01:57:02;;;;;;;87.72;47.35;;;;;;;-0.23;84.16;99271.23;1732052;83;21264;-75
2021/03/24 02:00:08;;;;;;;82.08;40.40;;;;;;;-0.24;84.27;99266.81;1731935;83;21272;-76
2021/03/24 02:03:13;;;;;;;69.70;38.58;;;;;;;-0.21;84.31;99276.46;1731984;83;21298;-76
2021/03/24 02:06:42;;;;;;;80.75;39.78;;;;;;;-0.19;84.31;99275.82;1732062;83;21157;-75
2021/03/24 02:09:58;;;;;;;70.85;40.73;;;;;;;-0.13;84.41;99275.31;1692961;84;21170;-75
2021/03/24 02:13:24;;;;;;;63.85;32.33;;;;;;;-0.08;84.30;99275.27;1723601;81;21208;-75
2021/03/24 02:16:34;;;;;;;57.33;30.37;;;;;;;-0.05;84.23;99276.81;1744451;82;21177;-76
2021/03/24 02:19:50;;;;;;;50.33;25.50;;;;;;;-0.03;84.19;99281.09;1744702;82;21765;-75
2021/03/24 02:22:59;;;;;;;44.18;23.55;;;;;;;0.03;84.23;99275.66;1722942;82;21354;-76
2021/03/24 02:26:41;;;;;;;41.37;22.60;;;;;;;0.07;84.08;99287.00;1724103;82;21276;-76
2021/03/24 02:29:52;;;;;;;36.53;19.35;;;;;;;0.10;83.94;99280.88;1744692;82;21157;-76
2021/03/24 02:33:00;;;;;;;32.10;19.70;;;;;;;0.13;83.90;99285.96;1744874;82;21280;-75
2021/03/24 02:36:10;;;;;;;41.42;22.30;;;;;;;0.17;83.87;99283.36;1744812;82;21272;-76
2021/03/24 02:39:18;;;;;;;39.18;22.70;;;;;;;0.21;83.84;99278.57;1744643;82;21736;-75
2021/03/24 02:42:23;;;;;;;33.63;19.32;;;;;;;0.24;83.72;99280.51;1744282;82;21357;-75
2021/03/24 02:45:35;;;;;;;37.65;21.00;;;;;;;0.26;83.66;99284.39;1741489;82;21264;-76
2021/03/24 02:48:42;;;;;;;25.35;14.53;;;;;;;0.33;83.72;99287.38;1738858;82;21300;-76
2021/03/24 02:51:48;;;;;;;22.95;13.25;;;;;;;0.38;83.63;99285.16;1725844;83;21146;-75
2021/03/24 02:54:53;;;;;;;21.35;14.13;;;;;;;0.45;83.55;99287.64;1726020;83;21830;-76
2021/03/24 02:57:58;;;;;;;20.92;13.15;;;;;;;0.51;83.40;99287.09;1731237;82;21182;-76
2021/03/24 03:01:04;;;;;;;19.92;13.43;;;;;;;0.56;83.23;99282.64;1740435;82;21264;-75
2021/03/24 03:04:18;;;;;;;17.87;11.57;;;;;;;0.56;83.03;99283.98;1740503;82;21300;-76
2021/03/24 03:07:37;;;;;;;20.08;12.73;;;;;;;0.57;82.94;99288.41;1740535;82;21264;-76
2021/03/24 03:10:58;;;;;;;20.17;12.98;;;;;;;0.60;82.96;99288.11;1736793;82;21222;-75
2021/03/24 03:14:10;;;;;;;25.62;15.23;;;;;;;0.63;82.94;99287.84;1726693;81;21316;-75
2021/03/24 03:17:21;;;;;;;22.73;14.95;;;;;;;0.60;82.95;99290.30;1723434;83;21185;-75
2021/03/24 03:20:43;;;;;;;17.70;13.68;;;;;;;0.58;83.05;99286.91;1723528;83;21162;-77
2021/03/24 03:23:47;;;;;;;20.97;15.08;;;;;;;0.58;83.18;99288.25;1723659;83;21296;-76
2021/03/24 03:26:53;;;;;;;25.43;15.30;;;;;;;0.60;83.28;99288.95;1723542;83;21142;-75
2021/03/24 03:29:59;;;;;;;25.25;17.23;;;;;;;0.61;83.31;99290.69;1723548;83;21737;-75
2021/03/24 03:33:06;;;;;;;26.17;17.82;;;;;;;0.61;83.33;99297.41;1708836;83;21308;-75
2021/03/24 03:36:11;;;;;;;28.15;18.07;;;;;;;0.61;83.52;99295.19;1723557;83;21281;-75
2021/03/24 03:39:19;;;;;;;29.12;19.10;;;;;;;0.61;83.63;99289.80;1723581;83;21784;-75
2021/03/24 03:42:25;;;;;;;34.80;22.58;;;;;;;0.64;83.77;99295.77;1723478;81;21237;-76
2021/03/24 03:45:30;;;;;;;28.20;18.90;;;;;;;0.66;83.89;99305.92;1723577;83;21812;-75
2021/03/24 03:48:35;;;;;;;32.30;20.57;;;;;;;0.65;83.92;99309.58;1723595;83;21301;-75
2021/03/24 03:52:05;;;;;;;26.45;19.67;;;;;;;0.64;84.11;99313.27;1733518;82;21236;-76
2021/03/24 03:55:20;;;;;;;28.00;20.97;;;;;;;0.62;84.27;99313.91;1733679;83;21273;-75
2021/03/24 03:58:43;;;;;;;34.40;22.05;;;;;;;0.64;84.55;99317.30;1733653;82;21582;-75
2021/03/24 04:01:57;;;;;;;30.95;21.48;;;;;;;0.68;84.76;99325.46;1733611;83;21308;-76
2021/03/24 04:05:05;;;;;;;33.90;20.17;;;;;;;0.66;84.84;99318.03;1733624;83;21313;-76
2021/03/24 04:08:23;;;;;;;34.27;20.65;;;;;;;0.63;85.02;99327.72;1733679;83;21319;-76
2021/03/24 04:11:29;;;;;;;29.85;20.60;;;;;;;0.60;85.36;99319.91;1734864;82;21684;-76
2021/03/24 04:14:35;;;;;;;29.40;19.50;;;;;;;0.57;85.64;99332.31;1749700;82;21247;-76
2021/03/24 04:17:52;;;;;;;28.70;20.32;;;;;;;0.51;85.93;99331.48;1750701;82;21295;-76
2021/03/24 04:21:00;;;;;;;29.42;20.52;;;;;;;0.49;86.28;99336.16;1750762;82;21169;-76
2021/03/24 04:24:15;;;;;;;32.00;19.98;;;;;;;0.49;86.65;99344.23;1743891;82;21307;-75
2021/03/24 04:27:21;;;;;;;34.88;22.67;;;;;;;0.49;86.89;99342.89;1742794;82;21708;-76
2021/03/24 04:30:32;;;;;;;30.10;21.40;;;;;;;0.53;87.16;99346.17;1737771;82;21761;-76
2021/03/24 04:33:37;;;;;;;27.07;19.67;;;;;;;0.58;87.30;99342.08;1749897;82;21348;-77
2021/03/24 04:36:50;;;;;;;30.85;19.90;;;;;;;0.63;87.37;99344.36;1750503;82;21157;-75
2021/03/24 04:40:15;;;;;;;26.60;19.77;;;;;;;0.72;87.46;99347.58;1747928;82;21268;-76
2021/03/24 04:43:23;;;;;;;24.80;17.90;;;;;;;0.83;87.40;99346.61;1691636;82;21244;-76
2021/03/24 04:46:33;;;;;;;25.45;18.92;;;;;;;0.90;87.24;99345.93;1710400;84;21160;-75
2021/03/24 04:49:43;;;;;;;26.20;16.97;;;;;;;0.95;87.01;99350.41;1709962;84;21716;-75
2021/03/24 04:52:49;;;;;;;32.93;21.65;;;;;;;0.98;86.81;99355.98;1710598;84;21276;-76
2021/03/24 04:55:57;;;;;;;23.70;17.60;;;;;;;0.96;86.66;99351.25;1710563;84;21272;-76
2021/03/24 04:59:02;;;;;;;31.65;20.00;;;;;;;0.95;86.82;99357.13;1720421;83;21272;-75
2021/03/24 05:02:20;;;;;;;27.32;20.05;;;;;;;0.97;86.92;99356.98;1704113;82;21303;-76
2021/03/24 05:05:35;;;;;;;27.27;20.10;;;;;;;1.01;87.02;99365.15;1711104;83;21799;-75
2021/03/24 05:08:50;;;;;;;25.95;18.98;;;;;;;1.03;86.97;99369.89;1725487;83;21260;-76
2021/03/24 05:12:24;;;;;;;26.30;18.27;;;;;;;1.02;86.89;99377.12;1731994;82;21161;-76
2021/03/24 05:15:34;;;;;;;23.12;17.57;;;;;;;1.03;87.02;99375.27;1749041;81;21736;-79
2021/03/24 05:18:39;;;;;;;22.82;17.57;;;;;;;1.04;87.10;99381.54;1741725;82;21795;-76
2021/03/24 05:22:02;;;;;;;22.27;15.68;;;;;;;1.06;87.19;99382.23;1738259;82;21194;-76
2021/03/24 05:25:33;;;;;;;23.75;18.65;;;;;;;1.06;87.19;99380.39;1737843;81;22222;-76
2021/03/24 05:28:46;;;;;;;20.50;15.93;;;;;;;1.09;87.24;99386.02;1748738;81;21209;-79
2021/03/24 05:31:59;;;;;;;21.05;15.95;;;;;;;1.09;87.26;99384.66;1768944;80;21851;-76
2021/03/24 05:35:00;;;;;;;21.20;16.85;;;;;;;1.07;87.30;99382.59;1728285;81;21252;-76
2021/03/24 05:38:27;;;;;;;20.15;15.60;;;;;;;1.03;87.43;99383.35;1724569;81;21217;-77
2021/03/24 05:42:02;;;;;;;20.72;16.00;;;;;;;1.02;87.71;99381.66;1734178;81;21307;-77
2021/03/24 05:45:40;;;;;;;18.48;15.05;;;;;;;1.03;87.99;99390.09;1747803;80;21288;-77
2021/03/24 05:49:56;;;;;;;16.82;12.75;;;;;;;1.11;88.22;99389.41;1744519;80;21366;-76
2021/03/24 05:53:22;;;;;;;17.02;12.20;;;;;;;1.14;88.21;99394.03;1741443;80;21808;-76
2021/03/24 05:57:01;;;;;;;15.53;11.93;;;;;;;1.14;88.08;99403.45;1726063;81;22598;-76
2021/03/24 06:00:19;;;;;;;15.53;11.57;;;;;;;1.11;88.08;99409.11;1724573;82;21189;-76
2021/03/24 06:03:43;;;;;;;16.00;12.20;;;;;;;1.15;88.29;99405.65;1725052;82;22420;-77
2021/03/24 06:07:24;;;;;;;17.45;13.25;;;;;;;1.19;88.24;99409.28;1727079;81;21319;-76
2021/03/24 06:11:12;;;;;;;14.50;11.10;;;;;;;1.24;88.18;99419.14;1728592;81;21889;-77
2021/03/24 06:14:56;;;;;;;14.83;10.88;;;;;;;1.28;87.80;99425.11;1723977;82;21874;-78
2021/03/24 06:18:32;;;;;;;14.87;11.18;;;;;;;1.22;87.66;99424.30;1723255;81;21292;-78
2021/03/24 06:22:13;;;;;;;16.62;12.80;;;;;;;1.21;87.70;99427.98;1724961;81;21170;-78
2021/03/24 06:36:40;;;;;;;14.98;11.60;;;;;;;1.19;88.22;99451.03;1897307;73;22811;-77
2021/03/24 06:40:36;;;;;;;17.60;12.73;;;;;;;1.20;88.20;99461.31;1829261;77;21858;-80
2021/03/24 06:44:37;;;;;;;15.80;12.33;;;;;;;1.27;88.05;99461.98;1831107;77;21301;-80
2021/03/24 06:48:03;;;;;;;17.25;12.55;;;;;;;1.23;87.64;99467.28;1833202;76;21328;-81
2021/03/24 06:51:30;;;;;;;18.40;11.48;;;;;;;1.26;87.59;99479.61;1833727;77;21241;-80
2021/03/24 06:55:04;;;;;;;17.15;13.13;;;;;;;1.27;87.33;99487.58;1830064;77;21289;-80
2021/03/24 06:58:52;;;;;;;15.28;11.90;;;;;;;1.23;87.15;99490.68;1755450;77;21237;-78
2021/03/24 07:02:30;;;;;;;16.50;12.37;;;;;;;1.21;87.21;99488.59;1833244;77;21255;-79
2021/03/24 07:06:02;;;;;;;20.60;13.72;;;;;;;1.26;87.93;99497.13;1787467;78;22261;-78
2021/03/24 07:09:20;;;;;;;18.17;13.62;;;;;;;1.28;88.54;99498.70;1752504;80;21164;-78
2021/03/24 07:12:57;;;;;;;16.62;12.90;;;;;;;1.33;88.62;99502.34;1758396;80;21265;-80
2021/03/24 07:16:23;;;;;;;19.92;13.15;;;;;;;1.37;88.34;99513.70;1767906;79;21774;-80
2021/03/24 07:20:14;;;;;;;18.87;13.10;;;;;;;1.40;88.00;99498.58;1772176;79;21218;-86
2021/03/24 07:24:02;;;;;;;17.45;13.48;;;;;;;1.46;87.31;99514.22;1750771;80;21207;-80
2021/03/24 07:27:26;;;;;;;18.12;12.20;;;;;;;1.45;86.78;99520.08;1769768;79;21732;-78
2021/03/24 07:30:51;;;;;;;19.65;14.05;;;;;;;1.51;86.55;99526.79;1773896;79;21836;-80
2021/03/24 07:34:09;;;;;;;23.38;13.05;;;;;;;1.48;86.19;99525.20;1767092;79;21594;-82
2021/03/24 07:37:43;;;;;;;17.37;13.80;;;;;;;1.48;86.36;99525.70;1773444;79;21379;-82
2021/03/24 07:41:15;;;;;;;17.40;12.73;;;;;;;1.53;86.61;99535.58;1771623;79;21188;-81
2021/03/24 07:45:02;;;;;;;15.90;12.68;;;;;;;1.59;86.65;99535.52;1773157;79;21262;-81
2021/03/24 07:48:33;;;;;;;17.25;13.00;;;;;;;1.57;86.69;99548.30;1771861;80;21349;-81
2021/03/24 07:52:11;;;;;;;19.07;13.38;;;;;;;1.56;86.89;99552.84;1775189;79;21310;-81
2021/03/24 07:55:33;;;;;;;17.77;13.90;;;;;;;1.54;87.07;99548.91;1772772;79;21347;-82
2021/03/24 07:59:08;;;;;;;22.13;11.65;;;;;;;1.53;87.35;99546.36;1767080;79;21636;-81
2021/03/24 08:02:50;;;;;;;20.35;14.45;;;;;;;1.52;87.51;99541.97;1772788;80;21772;-79
2021/03/24 08:06:06;;;;;;;18.73;13.83;;;;;;;1.54;87.76;99538.63;1772357;80;21328;-80
2021/03/24 08:09:37;;;;;;;20.30;13.72;;;;;;;1.59;87.89;99545.80;1768982;79;21852;-81
2021/03/24 08:13:21;;;;;;;18.60;13.30;;;;;;;1.61;87.79;99551.08;1771919;79;21290;-84
2021/03/24 08:16:44;;;;;;;17.95;12.98;;;;;;;1.65;87.72;99547.12;1765556;79;21979;-81
2021/03/24 08:20:21;;;;;;;18.50;12.33;;;;;;;1.66;87.75;99545.63;1769570;79;21200;-81
2021/03/24 08:23:58;;;;;;;16.25;12.05;;;;;;;1.71;87.70;99550.10;1771708;79;21548;-80
2021/03/24 08:27:11;;;;;;;15.38;11.57;;;;;;;1.65;87.59;99562.80;1769880;79;21164;-81
2021/03/24 08:30:32;;;;;;;16.97;13.78;;;;;;;1.58;87.89;99556.23;1774036;79;21277;-81
2021/03/24 08:34:10;;;;;;;19.50;13.13;;;;;;;1.58;88.14;99553.53;1771242;80;21223;-81
2021/03/24 08:37:36;;;;;;;17.05;11.68;;;;;;;1.64;88.11;99554.82;1769884;79;21305;-80
2021/03/24 08:41:33;;;;;;;17.57;12.73;;;;;;;1.68;87.99;99567.89;1759539;79;21265;-81
2021/03/24 08:45:03;;;;;;;17.98;12.95;;;;;;;1.77;87.91;99555.42;1671552;84;21227;-81
2021/03/24 08:48:14;;;;;;;17.82;12.90;;;;;;;1.82;87.43;99553.16;1669978;84;21226;-79
2021/03/24 08:52:01;;;;;;;15.75;11.93;;;;;;;1.86;86.95;99562.69;1749757;80;21220;-81
2021/03/24 08:55:12;;;;;;;17.60;12.80;;;;;;;1.85;86.51;99563.69;1738201;80;21291;-79
2021/03/24 08:58:32;;;;;;;14.85;11.33;;;;;;;1.85;86.16;99549.35;1730842;80;21808;-81
2021/03/24 09:02:18;;;;;;;15.13;11.78;;;;;;;1.86;86.38;99559.14;1751393;80;21911;-80
2021/03/24 09:05:43;;;;;;;15.20;11.22;;;;;;;1.88;86.32;99557.14;1753897;80;21270;-82
2021/03/24 09:09:33;;;;;;;15.03;11.78;;;;;;;1.91;86.09;99564.97;1753673;80;21318;-81
2021/03/24 09:12:54;;;;;;;17.70;12.95;;;;;;;1.97;85.97;99566.59;1753466;80;21318;-82
2021/03/24 09:16:33;;;;;;;15.08;11.43;;;;;;;1.94;85.37;99575.48;1730876;80;21247;-82
2021/03/24 09:20:33;;;;;;;14.78;10.95;;;;;;;1.90;85.29;99565.47;1723028;81;21180;-80
2021/03/24 09:23:59;;;;;;;;;;;;;;;1.88;84.73;99569.28;1761826;80;21204;-80
2021/03/24 09:27:29;;;;;;;14.40;9.95;;;;;;;1.89;84.67;99573.20;1760179;80;20230;-81
2021/03/24 09:30:51;;;;;;;16.30;12.50;;;;;;;1.90;84.91;99573.56;1759272;80;21168;-82
2021/03/24 09:34:09;;;;;;;17.82;12.28;;;;;;;1.94;84.85;99585.78;1778215;78;21286;-84
2021/03/24 09:37:18;;;;;;;13.65;10.58;;;;;;;2.01;84.60;99572.58;1769826;79;21160;-82
2021/03/24 09:40:45;;;;;;;15.90;10.75;;;;;;;2.04;84.60;99568.26;1746287;80;21685;-82
2021/03/24 09:43:58;;;;;;;19.90;14.18;;;;;;;2.04;84.39;99552.08;1763306;80;21318;-81
2021/03/24 09:47:04;;;;;;;19.02;13.35;;;;;;;2.10;84.27;99555.55;1764689;80;21773;-81
2021/03/24 09:50:39;;;;;;;18.25;11.88;;;;;;;2.13;84.39;99540.94;1766522;79;21338;-84
2021/03/24 09:53:49;;;;;;;16.07;11.05;;;;;;;2.19;84.16;99548.46;1767668;80;21298;-82
2021/03/24 09:57:12;;;;;;;16.95;11.85;;;;;;;2.22;84.00;99530.15;1770140;80;21831;-82
2021/03/24 10:00:20;;;;;;;16.77;11.68;;;;;;;2.24;84.06;99540.29;1745241;80;21310;-81
2021/03/24 10:03:53;;;;;;;19.60;12.82;;;;;;;2.22;83.75;99559.83;1767936;80;21294;-84
2021/03/24 10:07:12;;;;;;;19.05;11.10;;;;;;;2.20;83.73;99541.56;1767215;80;21178;-80
2021/03/24 10:10:34;;;;;;;17.23;12.58;;;;;;;2.23;83.84;99546.69;1779719;78;21334;-79
2021/03/24 10:13:45;;;;;;;15.80;11.68;;;;;;;2.25;83.67;99558.17;1745252;80;21333;-81
2021/03/24 10:16:53;;;;;;;17.50;12.78;;;;;;;2.23;83.54;99556.13;1758153;80;21725;-80
2021/03/24 10:20:08;;;;;;;17.87;12.60;;;;;;;2.24;83.82;99569.97;1760551;80;21210;-81
2021/03/24 10:23:23;;;;;;;18.70;13.98;;;;;;;2.23;83.69;99569.63;1756270;80;21183;-80
2021/03/24 10:26:40;;;;;;;15.50;11.90;;;;;;;2.21;83.76;99564.00;1744088;80;22125;-83
2021/03/24 10:29:53;;;;;;;20.08;12.90;;;;;;;2.20;83.83;99584.73;1739495;80;21322;-81
2021/03/24 10:33:11;;;;;;;19.15;14.20;;;;;;;2.17;83.70;99572.89;1744696;80;21561;-82
2021/03/24 10:36:38;;;;;;;19.07;12.95;;;;;;;2.14;83.53;99578.56;1776268;78;21217;-82
2021/03/24 10:39:59;;;;;;;20.80;13.15;;;;;;;2.10;83.40;99578.98;1739615;81;21714;-82
2021/03/24 10:43:24;;;;;;;21.77;13.88;;;;;;;2.08;83.74;99569.69;1730111;81;21277;-81
2021/03/24 10:46:57;;;;;;;25.02;15.55;;;;;;;2.08;83.97;99575.09;1737835;81;21898;-83
2021/03/24 10:50:27;;;;;;;25.80;15.13;;;;;;;2.10;84.05;99577.63;1733545;81;21303;-82
2021/03/24 10:53:36;;;;;;;23.30;16.15;;;;;;;2.11;83.86;99574.78;1733839;81;21298;-82
2021/03/24 10:57:04;;;;;;;26.87;15.63;;;;;;;2.12;83.71;99569.77;1726293;81;21694;-84
2021/03/24 11:00:42;;;;;;;25.30;16.93;;;;;;;2.13;83.22;99579.56;1720355;81;21291;-80
2021/03/24 11:04:14;;;;;;;23.20;15.03;;;;;;;2.03;82.93;99574.66;1737617;81;21523;-81
2021/03/24 11:07:34;;;;;;;24.70;15.50;;;;;;;2.01;83.15;99573.92;1728362;81;21389;-80
2021/03/24 11:10:59;;;;;;;23.65;15.95;;;;;;;2.01;83.20;99573.92;1735430;81;21513;-82
2021/03/24 11:14:10;;;;;;;22.37;15.53;;;;;;;1.93;82.74;99584.55;1715308;80;21564;-82
2021/03/24 11:17:27;;;;;;;22.80;15.83;;;;;;;1.88;82.94;99576.02;1747723;80;21569;-83
2021/03/24 11:21:03;;;;;;;24.77;16.70;;;;;;;1.88;83.12;99599.80;1745779;80;21960;-81
2021/03/24 11:24:38;;;;;;;21.62;15.50;;;;;;;1.83;82.94;99587.72;1745307;80;21183;-81
2021/03/24 11:27:55;;;;;;;25.02;16.57;;;;;;;1.75;83.24;99592.48;1730422;80;21211;-81
2021/03/24 11:31:19;;;;;;;20.68;15.50;;;;;;;1.69;83.37;99579.02;1751743;80;21338;-82
2021/03/24 11:34:36;;;;;;;20.65;15.00;;;;;;;1.69;83.35;99601.94;1751414;80;21341;-80
2021/03/24 11:38:08;;;;;;;22.35;15.72;;;;;;;1.73;82.93;99590.39;1751282;80;22296;-81
2021/03/24 11:41:39;;;;;;;20.32;14.60;;;;;;;1.72;82.47;99588.20;1642175;85;21245;-82
2021/03/24 11:44:47;;;;;;;20.25;14.23;;;;;;;1.75;82.21;99588.44;1682809;81;21302;-81
2021/03/24 11:48:26;;;;;;;23.60;15.48;;;;;;;1.79;82.04;99601.50;1737191;81;21933;-83
2021/03/24 11:51:56;;;;;;;22.73;16.25;;;;;;;1.78;82.13;99597.58;1743175;81;21293;-88
2021/03/24 11:55:40;;;;;;;22.90;16.37;;;;;;;1.78;82.24;99598.92;1737952;81;21643;-82
2021/03/24 11:59:38;;;;;;;22.50;15.30;;;;;;;1.82;82.38;99602.20;1740574;81;21198;-80
2021/03/24 12:03:18;;;;;;;25.68;16.12;;;;;;;1.84;82.77;99605.63;1750085;80;21769;-81
2021/03/24 12:06:48;;;;;;;23.92;16.35;;;;;;;1.83;82.76;99611.49;1742951;81;21762;-82
2021/03/24 12:09:55;;;;;;;23.30;16.82;;;;;;;1.85;82.91;99609.53;1740779;81;21324;-81
2021/03/24 12:13:11;;;;;;;25.60;17.85;;;;;;;1.86;83.12;99613.92;1740737;81;21398;-82
2021/03/24 12:16:34;;;;;;;24.30;18.05;;;;;;;1.85;82.92;99618.13;1744891;81;21817;-82
2021/03/24 12:19:51;;;;;;;24.27;16.82;;;;;;;1.85;83.10;99624.86;1719978;81;21415;-82
2021/03/24 12:23:04;;;;;;;26.25;17.15;;;;;;;1.83;83.21;99625.48;1731635;81;21190;-82
2021/03/24 12:26:44;;;;;;;27.30;19.32;;;;;;;1.79;83.00;99616.33;1708664;82;21548;-82
2021/03/24 12:30:10;;;;;;;26.10;17.73;;;;;;;1.75;82.92;99613.55;1699729;81;21802;-82
2021/03/24 12:33:30;;;;;;;22.80;15.38;;;;;;;1.75;83.19;99627.53;1691221;82;21832;-81
2021/03/24 12:36:41;;;;;;;25.05;18.05;;;;;;;1.72;83.51;99635.38;1703280;82;21252;-82
2021/03/24 12:39:56;;;;;;;23.95;15.40;;;;;;;1.67;83.95;99628.70;1738017;80;21520;-81
2021/03/24 12:43:19;;;;;;;26.73;18.30;;;;;;;1.67;84.54;99624.66;1741589;80;21198;-80
2021/03/24 12:46:31;;;;;;;27.30;18.90;;;;;;;1.70;84.88;99629.28;1760229;79;21310;-81
2021/03/24 12:49:47;;;;;;;28.50;18.82;;;;;;;1.70;84.97;99633.83;1736633;80;21641;-81
2021/03/24 12:53:30;;;;;;;32.42;20.37;;;;;;;1.69;84.98;99635.64;1752038;79;21855;-82
2021/03/24 12:56:51;;;;;;;26.75;19.73;;;;;;;1.70;85.14;99626.59;1767148;80;21807;-81
2021/03/24 13:00:31;;;;;;;27.25;18.00;;;;;;;1.80;85.03;99644.15;1765975;79;21255;-81
2021/03/24 13:04:06;;;;;;;22.50;17.85;;;;;;;1.80;84.71;99644.15;1764267;80;21329;-82
2021/03/24 13:07:41;;;;;;;28.38;20.05;;;;;;;1.73;84.79;99639.77;1737083;80;21204;-81
2021/03/24 13:10:58;;;;;;;25.27;16.85;;;;;;;1.73;85.11;99644.32;1732342;80;21797;-82
2021/03/24 13:14:26;;;;;;;30.82;20.17;;;;;;;1.74;85.04;99642.86;1763273;80;21161;-81
2021/03/24 13:18:10;;;;;;;28.80;18.50;;;;;;;1.76;85.06;99657.05;1759228;79;22058;-81
2021/03/24 13:21:33;;;;;;;24.43;17.12;;;;;;;1.76;84.63;99654.84;1741694;80;21314;-81
2021/03/24 13:25:17;;;;;;;25.08;17.67;;;;;;;1.74;84.60;99661.73;1763021;80;21326;-82
2021/03/24 13:29:10;;;;;;;23.07;16.27;;;;;;;1.72;84.71;99656.95;1736162;80;21230;-81
2021/03/24 13:32:48;;;;;;;28.83;19.15;;;;;;;1.67;84.84;99661.91;1773419;80;21195;-81
2021/03/24 13:36:02;;;;;;;26.23;18.10;;;;;;;1.67;85.13;99660.55;1763690;80;21236;-82
2021/03/24 13:39:30;;;;;;;22.00;16.02;;;;;;;1.67;85.19;99661.91;1760360;80;21931;-80
2021/03/24 13:42:49;;;;;;;28.57;18.90;;;;;;;1.67;85.21;99664.59;1761930;80;21275;-81
2021/03/24 13:46:02;;;;;;;33.85;20.60;;;;;;;1.64;85.15;99674.29;1770167;79;21327;-81
2021/03/24 13:49:09;;;;;;;27.05;18.40;;;;;;;1.64;85.32;99662.16;1745985;80;21227;-79
2021/03/24 13:52:55;;;;;;;31.68;19.75;;;;;;;1.65;85.42;99659.84;1744135;80;21805;-79
2021/03/24 13:56:17;;;;;;;27.32;19.48;;;;;;;1.66;84.58;99667.44;1763739;80;21255;-79
2021/03/24 13:59:36;;;;;;;30.62;19.15;;;;;;;1.60;83.95;99670.19;1765928;79;21274;-78
2021/03/24 14:03:05;;;;;;;31.00;20.32;;;;;;;1.59;83.58;99664.41;1764992;80;21334;-79
2021/03/24 14:06:44;;;;;;;28.12;18.15;;;;;;;1.58;83.12;99664.55;1759212;80;21327;-78
2021/03/24 14:09:57;;;;;;;32.55;19.57;;;;;;;1.60;82.86;99673.34;1761775;79;21224;-80
2021/03/24 14:13:58;;;;;;;28.60;19.50;;;;;;;1.62;82.86;99665.50;1785531;78;21196;-81
2021/03/24 14:17:13;;;;;;;29.85;18.73;;;;;;;1.59;82.99;99667.11;1748135;81;21173;-81
2021/03/24 14:20:34;;;;;;;30.32;19.60;;;;;;;1.57;83.61;99662.36;1776068;79;21132;-81
2021/03/24 14:24:28;;;;;;;28.05;18.73;;;;;;;1.55;84.29;99673.75;1781515;79;21290;-79
2021/03/24 14:27:40;;;;;;;27.87;17.95;;;;;;;1.48;84.93;99694.16;1780518;78;21901;-77
2021/03/24 14:31:00;;;;;;;32.60;19.00;;;;;;;1.30;86.08;99677.73;1770017;80;21157;-78
2021/03/24 14:34:29;;;;;;;30.10;18.90;;;;;;;1.16;86.99;99678.07;1763898;79;21350;-78
2021/03/24 14:37:49;;;;;;;21.60;14.73;;;;;;;1.03;88.13;99675.56;1758954;80;21561;-77
2021/03/24 14:41:28;;;;;;;31.95;20.60;;;;;;;0.95;89.25;99674.89;1753892;80;21282;-79
2021/03/24 14:44:55;;;;;;;28.20;18.37;;;;;;;0.88;90.10;99675.03;1736239;81;21641;-78
2021/03/24 14:48:36;;;;;;;29.63;20.70;;;;;;;0.83;90.81;99673.23;1734543;82;21333;-78
2021/03/24 14:51:48;;;;;;;30.82;20.95;;;;;;;0.80;91.38;99673.51;1733687;82;21295;-77
2021/03/24 14:55:01;;;;;;;32.48;21.50;;;;;;;0.84;91.77;99675.42;1732116;82;21220;-77
2021/03/24 14:58:25;;;;;;;31.70;20.08;;;;;;;0.85;91.82;99676.66;1723218;82;21331;-78
2021/03/24 15:01:40;;;;;;;32.73;19.65;;;;;;;0.90;91.91;99678.97;1716237;83;21304;-77
2021/03/24 15:04:46;;;;;;;28.60;18.20;;;;;;;0.91;91.76;99680.17;1706116;82;21325;-78
2021/03/24 15:07:50;;;;;;;28.62;17.85;;;;;;;0.95;91.63;99687.50;1705369;84;21219;-77
2021/03/24 15:11:17;;;;;;;32.78;20.23;;;;;;;0.98;91.46;99693.95;1705640;84;21248;-78
2021/03/24 15:14:46;;;;;;;35.35;23.40;;;;;;;0.98;91.30;99700.69;1706121;84;21188;-78
2021/03/24 15:18:15;;;;;;;38.35;22.90;;;;;;;0.97;91.22;99699.84;1713010;82;21332;-77
2021/03/24 15:21:32;;;;;;;37.60;23.75;;;;;;;0.99;91.26;99697.03;1749214;82;21333;-77
2021/03/24 15:25:15;;;;;;;37.83;25.50;;;;;;;0.99;91.22;99695.19;1749890;82;21194;-78
2021/03/24 15:28:38;;;;;;;34.33;23.18;;;;;;;1.00;91.20;99700.94;1749554;82;21321;-78
2021/03/24 15:32:03;;;;;;;33.90;22.87;;;;;;;1.00;91.22;99696.05;1749831;82;21965;-78
2021/03/24 15:35:34;;;;;;;32.90;23.98;;;;;;;1.00;91.25;99705.47;1749843;82;21285;-78
2021/03/24 15:38:51;;;;;;;36.23;23.65;;;;;;;1.00;91.26;99705.47;1749723;82;21862;-77
2021/03/24 15:42:36;;;;;;;36.93;23.75;;;;;;;0.97;91.17;99711.11;1749559;82;21748;-78
2021/03/24 15:45:52;;;;;;;38.85;23.77;;;;;;;0.89;91.12;99721.16;1749947;82;21277;-77